createdAt,value
2023-02-14T00:01:21.790Z,36.30
2023-02-14T00:03:50.933Z,34.78
2023-02-14T00:06:18.913Z,37.67
2023-02-14T00:08:46.746Z,37.85
2023-02-14T00:11:15.025Z,33.08
2023-02-14T00:14:03.927Z,36.55
2023-02-14T00:16:31.018Z,35.78
2023-02-14T00:19:05.974Z,36.20
2023-02-14T00:21:36.450Z,34.63
2023-02-14T00:24:04.298Z,35.33
2023-02-14T00:26:32.107Z,33.72
2023-02-14T00:28:59.910Z,31.58
2023-02-14T00:31:27.793Z,29.97
2023-02-14T00:33:55.869Z,31.98
2023-02-14T00:36:25.101Z,32.95
2023-02-14T00:38:53.200Z,33.60
2023-02-14T00:41:21.026Z,33.28
2023-02-14T00:43:49.320Z,33.83
2023-02-14T00:46:18.707Z,34.40
2023-02-14T00:48:46.765Z,31.75
2023-02-14T00:51:15.690Z,33.67
2023-02-14T00:53:44.910Z,33.65
2023-02-14T00:56:13.020Z,32.42
2023-02-14T00:58:40.849Z,32.53
2023-02-14T01:01:09.066Z,33.67
2023-02-14T01:03:37.441Z,30.55
2023-02-14T01:06:05.742Z,33.42
2023-02-14T01:08:33.574Z,32.38
2023-02-14T01:11:10.140Z,34.90
2023-02-14T01:13:37.964Z,34.23
2023-02-14T01:16:08.701Z,34.22
2023-02-14T01:18:37.262Z,34.78
2023-02-14T01:21:17.501Z,34.67
2023-02-14T01:23:45.984Z,34.27
2023-02-14T01:26:15.960Z,33.83
2023-02-14T01:28:44.862Z,35.92
2023-02-14T01:31:14.499Z,33.25
2023-02-14T01:33:43.693Z,32.20
2023-02-14T01:36:17.351Z,34.17
2023-02-14T01:38:45.136Z,33.20
2023-02-14T01:41:13.295Z,33.63
2023-02-14T01:43:57.954Z,33.73
2023-02-14T01:46:27.087Z,34.47
2023-02-14T01:48:59.348Z,34.13
2023-02-14T01:51:27.514Z,32.08
2023-02-14T01:53:55.681Z,32.58
2023-02-14T01:56:28.596Z,33.03
2023-02-14T01:59:01.091Z,32.67
2023-02-14T02:01:30.697Z,33.67
2023-02-14T02:04:01.776Z,33.67
2023-02-14T02:06:33.362Z,32.78
2023-02-14T02:09:11.748Z,32.65
2023-02-14T02:11:39.657Z,31.20
2023-02-14T02:14:14.765Z,31.17
2023-02-14T02:16:57.569Z,29.77
2023-02-14T02:20:05.649Z,30.63
2023-02-14T02:23:08.500Z,28.73
2023-02-14T02:25:57.235Z,29.92
2023-02-14T02:28:52.941Z,27.92
2023-02-14T02:31:50.231Z,27.70
2023-02-14T02:34:46.716Z,27.95
2023-02-14T02:37:31.721Z,27.60
2023-02-14T02:40:08.879Z,28.70
2023-02-14T02:42:47.037Z,28.43
2023-02-14T02:45:25.629Z,28.38
2023-02-14T02:48:04.364Z,26.60
2023-02-14T02:50:56.151Z,28.92
2023-02-14T02:53:30.481Z,30.08
2023-02-14T02:56:19.388Z,28.43
2023-02-14T02:58:52.857Z,28.00
2023-02-14T03:01:25.750Z,29.55
2023-02-14T03:04:16.831Z,28.77
2023-02-14T03:06:45.730Z,28.48
2023-02-14T03:09:50.048Z,28.63
2023-02-14T03:12:41.070Z,28.58
2023-02-14T03:15:15.976Z,28.38
2023-02-14T03:17:51.141Z,28.02
2023-02-14T03:20:22.867Z,28.47
2023-02-14T03:22:55.728Z,29.63
2023-02-14T03:25:37.846Z,29.17
2023-02-14T03:28:12.757Z,29.40
2023-02-14T03:30:47.785Z,29.30
2023-02-14T03:33:21.594Z,29.75
2023-02-14T03:35:55.905Z,29.55
2023-02-14T03:38:29.174Z,27.55
2023-02-14T03:41:01.544Z,27.98
2023-02-14T03:43:34.081Z,27.38
2023-02-14T03:46:07.153Z,27.25
2023-02-14T03:48:37.506Z,28.98
2023-02-14T03:51:07.623Z,28.08
2023-02-14T03:53:39.562Z,28.88
2023-02-14T03:56:14.877Z,28.42
2023-02-14T03:58:47.827Z,27.83
2023-02-14T04:01:21.937Z,29.55
2023-02-14T04:03:51.124Z,26.27
2023-02-14T04:06:19.464Z,24.97
2023-02-14T04:08:47.670Z,25.98
2023-02-14T04:11:16.894Z,26.65
2023-02-14T04:13:44.639Z,26.42
2023-02-14T04:16:12.467Z,25.67
2023-02-14T04:18:57.937Z,26.58
2023-02-14T04:21:25.736Z,26.70
2023-02-14T04:23:53.523Z,26.17
2023-02-14T04:26:22.667Z,25.08
2023-02-14T04:28:50.448Z,26.17
2023-02-14T04:31:18.382Z,25.60
2023-02-14T04:33:48.071Z,26.40
2023-02-14T04:36:15.888Z,25.02
2023-02-14T04:38:43.682Z,24.93
2023-02-14T04:41:11.490Z,25.08
2023-02-14T04:43:40.617Z,26.10
2023-02-14T04:46:08.433Z,25.75
2023-02-14T04:48:36.234Z,24.80
2023-02-14T04:51:04.233Z,23.67
2023-02-14T04:53:32.007Z,23.92
2023-02-14T04:55:59.785Z,22.63
2023-02-14T04:58:27.570Z,23.23
2023-02-14T05:00:56.805Z,22.85
2023-02-14T05:03:24.785Z,22.23
2023-02-14T05:05:52.556Z,22.10
2023-02-14T05:08:20.363Z,22.88
2023-02-14T05:10:48.158Z,23.15
2023-02-14T05:13:17.499Z,23.50
2023-02-14T05:15:45.948Z,24.85
2023-02-14T05:18:15.145Z,25.27
2023-02-14T05:20:42.916Z,24.10
2023-02-14T05:23:13.529Z,23.52
2023-02-14T05:25:41.445Z,23.80
2023-02-14T05:28:09.339Z,23.75
2023-02-14T05:30:38.254Z,23.23
2023-02-14T05:33:06.349Z,24.95
2023-02-14T05:35:35.629Z,24.90
2023-02-14T05:38:03.442Z,25.00
2023-02-14T05:40:31.286Z,24.45
2023-02-14T05:42:59.134Z,25.23
2023-02-14T05:45:27.010Z,24.63
2023-02-14T05:47:54.832Z,23.75
2023-02-14T05:50:22.798Z,24.23
2023-02-14T05:52:51.908Z,24.33
2023-02-14T05:55:19.937Z,25.20
2023-02-14T05:57:48.262Z,25.47
2023-02-14T06:00:17.206Z,25.88
2023-02-14T06:02:44.989Z,25.38
2023-02-14T06:05:12.822Z,26.27
2023-02-14T06:07:43.047Z,27.33
2023-02-14T06:10:12.732Z,26.10
2023-02-14T06:12:40.633Z,26.70
2023-02-14T06:15:09.198Z,27.73
2023-02-14T06:17:37.040Z,26.77
2023-02-14T06:20:05.905Z,27.37
2023-02-14T06:22:33.768Z,26.70
2023-02-14T06:25:01.568Z,26.25
2023-02-14T06:27:31.786Z,25.77
2023-02-14T06:29:59.759Z,25.63
2023-02-14T06:32:27.690Z,26.95
2023-02-14T06:34:55.449Z,28.30
2023-02-14T06:37:23.243Z,28.27
2023-02-14T06:39:51.047Z,26.85
2023-02-14T06:42:18.880Z,26.52
2023-02-14T06:44:47.968Z,28.10
2023-02-14T06:47:15.868Z,27.85
2023-02-14T06:49:43.632Z,27.87
2023-02-14T06:52:11.412Z,26.98
2023-02-14T06:54:39.249Z,26.92
2023-02-14T06:57:07.110Z,25.10
2023-02-14T06:59:34.877Z,27.90
2023-02-14T07:02:04.152Z,25.90
2023-02-14T07:04:31.991Z,26.08
2023-02-14T07:07:01.300Z,25.98
2023-02-14T07:09:29.221Z,26.33
2023-02-14T07:11:56.974Z,26.00
2023-02-14T07:14:24.896Z,26.02
2023-02-14T07:16:52.698Z,25.60
2023-02-14T07:19:21.827Z,25.25
2023-02-14T07:21:49.592Z,26.58
2023-02-14T07:24:17.424Z,25.90
2023-02-14T07:26:45.188Z,24.85
2023-02-14T07:29:12.984Z,24.98
2023-02-14T07:31:40.902Z,27.10
2023-02-14T07:34:08.796Z,25.52
2023-02-14T07:36:39.760Z,23.92
2023-02-14T07:39:07.986Z,25.17
2023-02-14T07:41:35.764Z,27.63
2023-02-14T07:44:03.535Z,26.17
2023-02-14T07:46:31.345Z,25.70
2023-02-14T07:48:59.158Z,26.50
2023-02-14T07:51:26.941Z,26.38
2023-02-14T07:53:56.119Z,25.52
2023-02-14T07:56:24.011Z,24.55
2023-02-14T07:58:51.912Z,25.33
2023-02-14T08:01:20.913Z,24.45
2023-02-14T08:03:49.954Z,24.07
2023-02-14T08:06:18.197Z,26.13
2023-02-14T08:08:46.856Z,25.70
2023-02-14T08:11:36.215Z,23.38
2023-02-14T08:14:04.705Z,24.20
2023-02-14T08:16:34.507Z,23.83
2023-02-14T08:19:02.719Z,24.52
2023-02-14T08:21:31.141Z,24.35
2023-02-14T08:23:58.913Z,23.92
2023-02-14T08:26:28.074Z,23.35
2023-02-14T08:28:55.859Z,24.42
2023-02-14T08:31:34.470Z,25.13
2023-02-14T08:34:02.815Z,24.27
2023-02-14T08:36:30.623Z,24.50
2023-02-14T08:38:58.456Z,23.65
2023-02-14T08:41:27.765Z,24.02
2023-02-14T08:43:55.544Z,23.95
2023-02-14T08:46:23.406Z,23.25
2023-02-14T08:48:53.279Z,24.05
2023-02-14T08:51:22.601Z,23.40
2023-02-14T08:53:51.860Z,23.60
2023-02-14T08:56:22.577Z,25.30
2023-02-14T08:58:54.441Z,24.77
2023-02-14T09:01:22.403Z,24.55
2023-02-14T09:03:50.496Z,25.03
2023-02-14T09:06:18.594Z,24.48
2023-02-14T09:08:47.099Z,25.00
2023-02-14T09:11:18.440Z,24.10
2023-02-14T09:13:46.826Z,24.98
2023-02-14T09:16:17.567Z,23.70
2023-02-14T09:18:46.093Z,24.63
2023-02-14T09:21:18.063Z,24.13
2023-02-14T09:23:46.120Z,24.63
2023-02-14T09:26:16.128Z,23.52
2023-02-14T09:28:44.214Z,24.08
2023-02-14T09:31:16.231Z,23.40
2023-02-14T09:33:45.053Z,23.83
2023-02-14T09:36:11.870Z,22.90
2023-02-14T09:38:39.722Z,23.40
2023-02-14T09:41:09.151Z,23.67
2023-02-14T09:43:44.569Z,23.77
2023-02-14T09:46:18.326Z,23.95
2023-02-14T09:48:48.285Z,24.97
2023-02-14T09:51:19.985Z,23.67
2023-02-14T09:53:52.757Z,24.05
2023-02-14T09:56:25.948Z,26.70
2023-02-14T09:59:01.181Z,24.95
2023-02-14T10:01:37.291Z,23.80
2023-02-14T10:04:22.085Z,23.95
2023-02-14T10:06:52.212Z,23.88
2023-02-14T10:09:43.595Z,24.13
2023-02-14T10:12:17.924Z,23.75
2023-02-14T10:14:46.172Z,23.50
2023-02-14T10:17:20.707Z,24.65
2023-02-14T10:19:55.000Z,24.20
2023-02-14T10:22:25.945Z,24.20
2023-02-14T10:24:57.624Z,24.67
2023-02-14T10:27:32.721Z,24.60
2023-02-14T10:30:02.420Z,25.03
2023-02-14T10:32:41.201Z,25.58
2023-02-14T10:35:23.327Z,25.30
2023-02-14T10:38:02.692Z,24.15
2023-02-14T10:40:48.996Z,24.75
2023-02-14T10:43:28.659Z,24.88
2023-02-14T10:46:05.418Z,25.48
2023-02-14T10:48:46.267Z,27.05
2023-02-14T10:51:20.472Z,24.95
2023-02-14T10:54:01.520Z,27.55
2023-02-14T10:56:35.451Z,26.67
2023-02-14T10:59:15.980Z,26.27
2023-02-14T11:01:44.663Z,25.67
2023-02-14T11:04:16.575Z,26.40
2023-02-14T11:06:45.967Z,25.48
2023-02-14T11:09:13.845Z,26.55
2023-02-14T11:11:46.701Z,26.30
2023-02-14T11:14:23.490Z,26.02
2023-02-14T11:16:52.567Z,24.95
2023-02-14T11:19:25.495Z,27.05
2023-02-14T11:21:55.514Z,26.33
2023-02-14T11:24:32.107Z,24.27
2023-02-14T11:27:02.725Z,24.02
2023-02-14T11:29:32.178Z,23.95
2023-02-14T11:32:09.703Z,23.65
2023-02-14T11:34:42.097Z,24.17
2023-02-14T11:37:27.684Z,24.90
2023-02-14T11:39:57.846Z,24.30
2023-02-14T11:42:41.181Z,23.10
2023-02-14T11:45:26.540Z,24.10
2023-02-14T11:48:22.006Z,25.05
2023-02-14T11:51:01.583Z,24.70
2023-02-14T11:53:41.093Z,25.07
2023-02-14T11:56:08.922Z,24.90
2023-02-14T11:58:40.236Z,25.40
2023-02-14T12:01:12.320Z,25.17
2023-02-14T12:03:46.085Z,25.40
2023-02-14T12:06:25.648Z,25.45
2023-02-14T12:09:11.134Z,25.33
2023-02-14T12:11:39.269Z,26.17
2023-02-14T12:14:20.777Z,26.03
2023-02-14T12:16:55.324Z,25.70
2023-02-14T12:19:31.496Z,25.33
2023-02-14T12:22:03.769Z,24.80
2023-02-14T12:24:34.566Z,24.15
2023-02-14T12:27:11.513Z,24.97
2023-02-14T12:29:44.197Z,23.65
2023-02-14T12:32:20.613Z,24.45
2023-02-14T12:34:48.987Z,24.27
2023-02-14T12:37:28.383Z,24.85
2023-02-14T12:40:08.417Z,23.75
2023-02-14T12:42:52.882Z,24.42
2023-02-14T12:45:26.670Z,22.88
2023-02-14T12:48:05.892Z,22.23
2023-02-14T12:50:44.896Z,22.50
2023-02-14T12:53:39.822Z,22.08
2023-02-14T12:56:16.132Z,20.50
2023-02-14T12:58:53.603Z,19.93
2023-02-14T13:01:40.488Z,20.10
2023-02-14T13:04:26.779Z,20.13
2023-02-14T13:07:00.571Z,19.88
2023-02-14T13:09:37.731Z,20.30
2023-02-14T13:12:16.708Z,20.00
2023-02-14T13:15:08.199Z,20.05
2023-02-14T13:17:42.241Z,19.80
2023-02-14T13:20:34.940Z,20.38
2023-02-14T13:23:06.135Z,19.05
2023-02-14T13:25:41.818Z,19.10
2023-02-14T13:28:14.799Z,18.95
2023-02-14T13:30:43.219Z,18.57
2023-02-14T13:33:27.462Z,18.97
2023-02-14T13:35:58.891Z,19.17
2023-02-14T13:38:28.273Z,19.30
2023-02-14T13:41:01.714Z,18.65
2023-02-14T13:43:52.348Z,18.60
2023-02-14T13:46:23.118Z,18.83
2023-02-14T13:48:59.610Z,18.63
2023-02-14T13:51:44.970Z,19.17
2023-02-14T13:54:32.867Z,18.48
2023-02-14T13:57:03.726Z,18.75
2023-02-14T13:59:34.088Z,18.65
2023-02-14T14:02:31.903Z,18.90
2023-02-14T14:05:01.920Z,18.77
2023-02-14T14:07:31.262Z,18.50
2023-02-14T14:10:02.518Z,19.00
2023-02-14T14:12:42.626Z,20.00
2023-02-14T14:15:16.177Z,19.33
2023-02-14T14:17:49.688Z,19.45
2023-02-14T14:20:43.306Z,20.92
2023-02-14T14:23:34.647Z,20.63
2023-02-14T14:26:03.396Z,19.65
2023-02-14T14:28:34.309Z,20.20
2023-02-14T14:31:02.267Z,20.35
2023-02-14T14:33:31.998Z,21.40
2023-02-14T14:36:04.097Z,21.25
2023-02-14T14:38:34.942Z,19.52
2023-02-14T14:41:03.649Z,20.13
2023-02-14T14:43:35.783Z,20.00
2023-02-14T14:46:05.224Z,19.90
2023-02-14T14:48:36.843Z,20.45
2023-02-14T14:51:06.961Z,20.88
2023-02-14T14:53:44.364Z,20.75
2023-02-14T14:56:14.256Z,19.48
2023-02-14T14:58:43.524Z,19.77
2023-02-14T15:01:21.170Z,19.70
2023-02-14T15:03:49.957Z,19.70
2023-02-14T15:06:20.905Z,20.25
2023-02-14T15:08:49.772Z,19.85
2023-02-14T15:11:35.339Z,20.45
2023-02-14T15:14:05.944Z,20.30
2023-02-14T15:16:46.672Z,20.98
2023-02-14T15:19:21.525Z,19.67
2023-02-14T15:21:49.624Z,20.13
2023-02-14T15:24:19.430Z,19.50
2023-02-14T15:26:52.540Z,18.40
2023-02-14T15:29:25.013Z,19.83
2023-02-14T15:31:53.488Z,20.05
2023-02-14T15:34:25.064Z,19.60
2023-02-14T15:36:59.040Z,19.58
2023-02-14T15:39:34.767Z,19.73
2023-02-14T15:42:02.629Z,20.13
2023-02-14T15:44:32.139Z,20.63
2023-02-14T15:47:02.920Z,20.70
2023-02-14T15:49:35.552Z,22.15
2023-02-14T15:52:05.333Z,22.07
2023-02-14T15:54:38.513Z,21.30
2023-02-14T15:57:08.769Z,21.57
2023-02-14T15:59:43.107Z,21.77
2023-02-14T16:02:27.229Z,20.63
2023-02-14T16:04:55.310Z,21.33
2023-02-14T16:07:25.635Z,22.43
2023-02-14T16:10:24.077Z,23.10
2023-02-14T16:12:57.712Z,22.83
2023-02-14T16:15:28.629Z,24.55
2023-02-14T16:17:56.627Z,23.65
2023-02-14T16:20:40.766Z,23.20
2023-02-14T16:23:26.115Z,25.48
2023-02-14T16:25:57.137Z,24.48
2023-02-14T16:28:28.575Z,24.73
2023-02-14T16:31:00.216Z,25.77
2023-02-14T16:33:30.247Z,25.90
2023-02-14T16:36:06.198Z,25.92
2023-02-14T16:38:36.576Z,27.20
2023-02-14T16:41:05.622Z,27.80
2023-02-14T16:43:34.498Z,27.50
2023-02-14T16:46:03.649Z,27.90
2023-02-14T16:48:31.984Z,29.08
2023-02-14T16:51:00.158Z,30.17
2023-02-14T16:53:29.291Z,29.52
2023-02-14T16:55:58.527Z,30.02
2023-02-14T16:58:30.068Z,29.58
2023-02-14T17:00:58.616Z,30.20
2023-02-14T17:03:28.250Z,30.05
2023-02-14T17:05:57.967Z,30.15
2023-02-14T17:08:26.826Z,32.30
2023-02-14T17:10:56.625Z,37.72
2023-02-14T17:13:27.585Z,33.25
2023-02-14T17:15:56.073Z,33.40
2023-02-14T17:18:25.133Z,34.78
2023-02-14T17:20:54.672Z,36.55
2023-02-14T17:23:24.241Z,34.88
2023-02-14T17:25:52.130Z,35.95
2023-02-14T17:28:19.961Z,38.63
2023-02-14T17:30:47.800Z,37.33
2023-02-14T17:33:15.639Z,37.10
2023-02-14T17:35:43.521Z,35.03
2023-02-14T17:38:12.764Z,36.38
2023-02-14T17:40:40.503Z,35.30
2023-02-14T17:43:08.248Z,36.38
2023-02-14T17:45:36.536Z,36.90
2023-02-14T17:48:04.494Z,38.72
2023-02-14T17:50:32.432Z,35.55
2023-02-14T17:53:00.211Z,37.47
2023-02-14T17:55:29.512Z,38.75
2023-02-14T17:57:57.298Z,38.53
2023-02-14T18:00:25.359Z,39.70
2023-02-14T18:02:53.305Z,38.47
2023-02-14T18:05:21.478Z,37.97
2023-02-14T18:07:49.252Z,36.00
2023-02-14T18:10:17.193Z,34.30
2023-02-14T18:12:46.343Z,35.03
2023-02-14T18:15:14.613Z,36.55
2023-02-14T18:17:42.394Z,33.90
2023-02-14T18:20:11.166Z,34.47
2023-02-14T18:22:38.965Z,33.13
2023-02-14T18:25:07.495Z,35.10
2023-02-14T18:27:35.340Z,33.17
2023-02-14T18:30:04.931Z,38.65
2023-02-14T18:32:32.801Z,34.90
2023-02-14T18:35:00.535Z,34.77
2023-02-14T18:37:28.341Z,35.72
2023-02-14T18:39:56.348Z,35.30
2023-02-14T18:42:24.136Z,35.33
2023-02-14T18:44:51.916Z,34.67
2023-02-14T18:47:21.063Z,35.05
2023-02-14T18:49:48.941Z,32.47
2023-02-14T18:52:16.737Z,33.08
2023-02-14T18:54:44.542Z,33.70
2023-02-14T18:57:12.289Z,33.72
2023-02-14T18:59:40.197Z,32.70
2023-02-14T19:02:08.328Z,33.05
2023-02-14T19:04:37.552Z,32.63
2023-02-14T19:07:05.295Z,32.72
2023-02-14T19:09:38.862Z,30.65
2023-02-14T19:12:07.359Z,32.00
2023-02-14T19:14:35.519Z,31.75
2023-02-14T19:17:04.336Z,31.50
2023-02-14T19:19:32.527Z,33.67
2023-02-14T19:22:02.601Z,31.05
2023-02-14T19:24:30.404Z,33.13
2023-02-14T19:26:58.354Z,32.50
2023-02-14T19:29:26.766Z,34.47
2023-02-14T19:31:55.679Z,34.55
2023-02-14T19:34:28.008Z,34.40
2023-02-14T19:36:59.473Z,33.55
2023-02-14T19:39:30.372Z,32.50
2023-02-14T19:41:59.010Z,32.33
2023-02-14T19:44:28.758Z,33.03
2023-02-14T19:46:59.762Z,31.05
2023-02-14T19:49:29.149Z,32.35
2023-02-14T19:51:57.888Z,31.80
2023-02-14T19:54:26.497Z,31.67
2023-02-14T19:56:56.527Z,30.48
2023-02-14T19:59:24.443Z,30.98
2023-02-14T20:01:53.685Z,30.00
2023-02-14T20:04:23.725Z,30.40
2023-02-14T20:06:52.309Z,32.05
2023-02-14T20:09:21.726Z,29.63
2023-02-14T20:11:51.649Z,28.85
2023-02-14T20:14:22.526Z,28.80
2023-02-14T20:16:51.215Z,27.45
2023-02-14T20:19:21.198Z,29.70
2023-02-14T20:21:50.597Z,30.02
2023-02-14T20:24:20.326Z,28.85
2023-02-14T20:26:48.804Z,29.47
2023-02-14T20:29:17.052Z,28.63
2023-02-14T20:31:48.990Z,29.73
2023-02-14T20:34:17.385Z,27.73
2023-02-14T20:36:49.393Z,29.50
2023-02-14T20:39:17.297Z,33.05
2023-02-14T20:41:49.620Z,29.60
2023-02-14T20:44:21.284Z,30.25
2023-02-14T20:46:53.385Z,28.33
2023-02-14T20:49:22.113Z,29.95
2023-02-14T20:51:51.433Z,27.75
2023-02-14T20:54:20.814Z,26.77
2023-02-14T20:56:50.507Z,26.95
2023-02-14T20:59:19.312Z,25.77
2023-02-14T21:01:47.288Z,26.10
2023-02-14T21:04:16.629Z,28.00
2023-02-14T21:06:44.422Z,27.65
2023-02-14T21:09:12.260Z,26.93
2023-02-14T21:11:40.025Z,26.05
2023-02-14T21:14:07.801Z,25.60
2023-02-14T21:16:35.622Z,24.70
2023-02-14T21:19:04.083Z,24.58
2023-02-14T21:21:36.209Z,25.55
2023-02-14T21:24:06.258Z,23.70
2023-02-14T21:26:34.474Z,23.48
2023-02-14T21:29:02.694Z,23.15
2023-02-14T21:31:31.444Z,26.37
2023-02-14T21:34:00.924Z,24.77
2023-02-14T21:36:30.363Z,24.02
2023-02-14T21:39:00.578Z,23.17
2023-02-14T21:41:30.772Z,25.00
2023-02-14T21:44:00.140Z,25.35
2023-02-14T21:46:30.565Z,26.27
2023-02-14T21:49:16.709Z,26.15
2023-02-14T21:51:44.760Z,27.15
2023-02-14T21:54:14.212Z,26.60
2023-02-14T21:56:42.794Z,28.02
2023-02-14T21:59:11.035Z,26.70
2023-02-14T22:01:40.963Z,28.42
2023-02-14T22:04:10.204Z,26.23
2023-02-14T22:06:40.502Z,26.33
2023-02-14T22:09:08.872Z,26.08
2023-02-14T22:11:38.056Z,25.80
2023-02-14T22:14:06.024Z,24.45
2023-02-14T22:16:36.606Z,25.88
2023-02-14T22:19:05.096Z,26.85
2023-02-14T22:21:33.382Z,27.38
2023-02-14T22:24:02.056Z,27.90
2023-02-14T22:26:31.215Z,28.92
2023-02-14T22:29:01.772Z,26.67
2023-02-14T22:31:33.301Z,26.73
2023-02-14T22:34:01.163Z,25.67
2023-02-14T22:36:28.934Z,27.20
2023-02-14T22:38:56.753Z,26.65
2023-02-14T22:41:26.041Z,26.40
2023-02-14T22:43:54.859Z,25.00
2023-02-14T22:46:26.288Z,26.77
2023-02-14T22:48:54.892Z,28.33
2023-02-14T22:51:24.564Z,30.23
2023-02-14T22:53:54.364Z,27.52
2023-02-14T22:56:24.293Z,27.73
2023-02-14T22:58:55.338Z,26.38
2023-02-14T23:01:25.124Z,26.98
2023-02-14T23:03:55.619Z,24.35
2023-02-14T23:06:24.021Z,25.48
2023-02-14T23:08:52.091Z,24.88
2023-02-14T23:11:21.581Z,25.02
2023-02-14T23:14:06.817Z,25.70
2023-02-14T23:16:54.073Z,24.85
2023-02-14T23:19:41.321Z,25.05
2023-02-14T23:22:10.705Z,25.15
2023-02-14T23:24:38.971Z,24.90
2023-02-14T23:27:07.263Z,23.10
2023-02-14T23:29:36.287Z,24.10
2023-02-14T23:32:05.908Z,25.15
2023-02-14T23:34:35.724Z,23.92
2023-02-14T23:37:03.785Z,25.42
2023-02-14T23:39:35.636Z,26.52
2023-02-14T23:42:03.611Z,25.42
2023-02-14T23:44:31.733Z,25.75
2023-02-14T23:47:01.493Z,26.52
2023-02-14T23:49:32.445Z,24.45
2023-02-14T23:52:00.335Z,23.67
2023-02-14T23:54:28.515Z,22.10
2023-02-14T23:56:57.334Z,24.05
2023-02-14T23:59:25.411Z,25.50
